sensor_id;sensor_type;location;lat;lon;timestamp;pressure;altitude;pressure_sealevel;temperature;humidity
17362;BME280;8798;51.938;4.348;2023-04-19T00:02:23;102089.31;;;11.32;61.56
17362;BME280;8798;51.938;4.348;2023-04-19T00:04:53;102084.31;;;11.27;61.04
17362;BME280;8798;51.938;4.348;2023-04-19T00:07:21;102090.69;;;11.26;61.39
17362;BME280;8798;51.938;4.348;2023-04-19T00:09:49;102080.28;;;11.22;61.58
17362;BME280;8798;51.938;4.348;2023-04-19T00:12:17;102068.22;;;11.16;61.65
17362;BME280;8798;51.938;4.348;2023-04-19T00:14:45;102052.56;;;11.10;61.52
17362;BME280;8798;51.938;4.348;2023-04-19T00:17:13;102022.88;;;11.00;61.84
17362;BME280;8798;51.938;4.348;2023-04-19T00:19:41;102010.94;;;10.93;61.79
17362;BME280;8798;51.938;4.348;2023-04-19T00:22:11;102004.09;;;10.89;61.94
17362;BME280;8798;51.938;4.348;2023-04-19T00:24:39;102007.03;;;10.86;61.61
17362;BME280;8798;51.938;4.348;2023-04-19T00:27:06;101997.41;;;10.83;61.95
17362;BME280;8798;51.938;4.348;2023-04-19T00:29:34;101995.94;;;10.79;62.17
17362;BME280;8798;51.938;4.348;2023-04-19T00:32:02;101996.19;;;10.76;61.80
17362;BME280;8798;51.938;4.348;2023-04-19T00:34:31;101996.28;;;10.74;61.74
17362;BME280;8798;51.938;4.348;2023-04-19T00:36:59;101994.81;;;10.70;62.17
17362;BME280;8798;51.938;4.348;2023-04-19T00:39:28;101989.69;;;10.67;61.78
17362;BME280;8798;51.938;4.348;2023-04-19T00:41:56;101995.22;;;10.66;61.88
17362;BME280;8798;51.938;4.348;2023-04-19T00:44:24;101996.31;;;10.63;62.27
17362;BME280;8798;51.938;4.348;2023-04-19T00:46:52;102003.66;;;10.61;61.98
17362;BME280;8798;51.938;4.348;2023-04-19T00:49:22;102007.28;;;10.60;62.31
17362;BME280;8798;51.938;4.348;2023-04-19T00:51:50;102011.09;;;10.58;62.32
17362;BME280;8798;51.938;4.348;2023-04-19T00:54:18;102007.56;;;10.57;61.78
17362;BME280;8798;51.938;4.348;2023-04-19T00:56:47;102016.59;;;10.56;62.41
17362;BME280;8798;51.938;4.348;2023-04-19T00:59:16;102030.03;;;10.56;62.49
17362;BME280;8798;51.938;4.348;2023-04-19T01:01:44;102031.97;;;10.54;62.19
17362;BME280;8798;51.938;4.348;2023-04-19T01:04:12;102040.03;;;10.54;62.48
17362;BME280;8798;51.938;4.348;2023-04-19T01:06:41;102051.63;;;10.54;62.34
17362;BME280;8798;51.938;4.348;2023-04-19T01:09:08;102058.84;;;10.54;62.66
17362;BME280;8798;51.938;4.348;2023-04-19T01:11:36;102071.44;;;10.53;62.41
17362;BME280;8798;51.938;4.348;2023-04-19T01:14:08;102073.25;;;10.53;62.50
17362;BME280;8798;51.938;4.348;2023-04-19T01:16:36;102082.28;;;10.52;62.68
17362;BME280;8798;51.938;4.348;2023-04-19T01:19:04;102105.25;;;10.56;62.95
17362;BME280;8798;51.938;4.348;2023-04-19T01:21:32;102145.91;;;10.63;62.72
17362;BME280;8798;51.938;4.348;2023-04-19T01:24:01;102170.59;;;10.68;63.13
17362;BME280;8798;51.938;4.348;2023-04-19T01:26:29;102204.09;;;10.75;63.12
17362;BME280;8798;51.938;4.348;2023-04-19T01:28:57;102237.59;;;10.82;63.22
17362;BME280;8798;51.938;4.348;2023-04-19T01:31:25;102273.88;;;10.88;62.88
17362;BME280;8798;51.938;4.348;2023-04-19T01:33:52;102303.84;;;10.94;63.41
17362;BME280;8798;51.938;4.348;2023-04-19T01:36:20;102330.38;;;10.99;63.54
17362;BME280;8798;51.938;4.348;2023-04-19T01:38:48;102354.09;;;11.05;63.01
17362;BME280;8798;51.938;4.348;2023-04-19T01:41:18;102384.94;;;11.12;63.29
17362;BME280;8798;51.938;4.348;2023-04-19T01:43:48;102409.78;;;11.16;62.99
17362;BME280;8798;51.938;4.348;2023-04-19T01:46:15;102431.06;;;11.19;63.55
17362;BME280;8798;51.938;4.348;2023-04-19T01:48:43;102439.88;;;11.21;63.59
17362;BME280;8798;51.938;4.348;2023-04-19T01:51:11;102447.84;;;11.23;63.75
17362;BME280;8798;51.938;4.348;2023-04-19T01:53:39;102474.34;;;11.27;63.66
17362;BME280;8798;51.938;4.348;2023-04-19T01:56:06;102497.38;;;11.31;63.87
17362;BME280;8798;51.938;4.348;2023-04-19T01:58:36;102512.31;;;11.35;63.93
17362;BME280;8798;51.938;4.348;2023-04-19T02:01:03;102526.38;;;11.39;63.75
17362;BME280;8798;51.938;4.348;2023-04-19T02:03:31;102536.06;;;11.41;64.10
17362;BME280;8798;51.938;4.348;2023-04-19T02:05:59;102544.88;;;11.44;63.76
17362;BME280;8798;51.938;4.348;2023-04-19T02:08:27;102547.69;;;11.42;64.17
17362;BME280;8798;51.938;4.348;2023-04-19T02:10:55;102542.44;;;11.40;63.93
17362;BME280;8798;51.938;4.348;2023-04-19T02:13:23;102532.75;;;11.38;64.10
17362;BME280;8798;51.938;4.348;2023-04-19T02:15:52;102528.47;;;11.35;63.85
17362;BME280;8798;51.938;4.348;2023-04-19T02:18:20;102519.66;;;11.33;63.83
17362;BME280;8798;51.938;4.348;2023-04-19T02:20:50;102510.94;;;11.30;64.46
17362;BME280;8798;51.938;4.348;2023-04-19T02:23:18;102496.00;;;11.26;63.91
17362;BME280;8798;51.938;4.348;2023-04-19T02:25:46;102464.31;;;11.18;64.13
17362;BME280;8798;51.938;4.348;2023-04-19T02:28:14;102422.06;;;11.07;64.24
17362;BME280;8798;51.938;4.348;2023-04-19T02:30:41;102391.47;;;10.97;64.04
17362;BME280;8798;51.938;4.348;2023-04-19T02:33:11;102366.88;;;10.90;64.05
17362;BME280;8798;51.938;4.348;2023-04-19T02:35:39;102324.69;;;10.80;64.52
17362;BME280;8798;51.938;4.348;2023-04-19T02:38:06;102301.19;;;10.70;64.07
17362;BME280;8798;51.938;4.348;2023-04-19T02:40:34;102293.38;;;10.67;64.97
17362;BME280;8798;51.938;4.348;2023-04-19T02:43:02;102288.13;;;10.66;64.21
17362;BME280;8798;51.938;4.348;2023-04-19T02:45:30;102286.53;;;10.63;64.10
17362;BME280;8798;51.938;4.348;2023-04-19T02:47:58;102303.28;;;10.67;64.47
17362;BME280;8798;51.938;4.348;2023-04-19T02:50:28;102323.69;;;10.69;64.74
17362;BME280;8798;51.938;4.348;2023-04-19T02:52:57;102339.56;;;10.72;64.80
17362;BME280;8798;51.938;4.348;2023-04-19T02:55:24;102357.19;;;10.76;64.59
17362;BME280;8798;51.938;4.348;2023-04-19T02:57:52;102385.66;;;10.79;64.98
17362;BME280;8798;51.938;4.348;2023-04-19T03:00:20;102403.16;;;10.85;64.74
17362;BME280;8798;51.938;4.348;2023-04-19T03:02:48;102418.19;;;10.87;64.79
17362;BME280;8798;51.938;4.348;2023-04-19T03:05:16;102433.22;;;10.90;65.43
17362;BME280;8798;51.938;4.348;2023-04-19T03:07:45;102450.97;;;10.92;65.24
17362;BME280;8798;51.938;4.348;2023-04-19T03:10:13;102459.69;;;10.96;65.54
17362;BME280;8798;51.938;4.348;2023-04-19T03:12:41;102488.03;;;11.00;65.28
17362;BME280;8798;51.938;4.348;2023-04-19T03:15:09;102498.59;;;11.03;64.61
17362;BME280;8798;51.938;4.348;2023-04-19T03:17:37;102515.34;;;11.07;65.16
17362;BME280;8798;51.938;4.348;2023-04-19T03:20:06;102526.84;;;11.09;65.54
17362;BME280;8798;51.938;4.348;2023-04-19T03:22:37;102545.44;;;11.12;65.18
17362;BME280;8798;51.938;4.348;2023-04-19T03:25:07;102567.63;;;11.15;65.15
17362;BME280;8798;51.938;4.348;2023-04-19T03:27:38;102580.94;;;11.17;65.52
17362;BME280;8798;51.938;4.348;2023-04-19T03:30:06;102599.44;;;11.22;65.47
17362;BME280;8798;51.938;4.348;2023-04-19T03:32:34;102607.25;;;11.25;65.15
17362;BME280;8798;51.938;4.348;2023-04-19T03:35:03;102614.38;;;11.26;64.95
17362;BME280;8798;51.938;4.348;2023-04-19T03:37:31;102611.78;;;11.24;65.40
17362;BME280;8798;51.938;4.348;2023-04-19T03:39:58;102617.91;;;11.26;65.29
17362;BME280;8798;51.938;4.348;2023-04-19T03:42:27;102628.59;;;11.28;65.47
17362;BME280;8798;51.938;4.348;2023-04-19T03:44:55;102626.75;;;11.28;65.96
17362;BME280;8798;51.938;4.348;2023-04-19T03:47:23;102641.81;;;11.31;65.83
17362;BME280;8798;51.938;4.348;2023-04-19T03:49:51;102650.63;;;11.33;65.53
17362;BME280;8798;51.938;4.348;2023-04-19T03:52:19;102651.47;;;11.33;65.76
17362;BME280;8798;51.938;4.348;2023-04-19T03:54:47;102651.47;;;11.33;65.54
17362;BME280;8798;51.938;4.348;2023-04-19T03:57:15;102675.38;;;11.38;65.94
17362;BME280;8798;51.938;4.348;2023-04-19T03:59:45;102684.28;;;11.38;65.61
17362;BME280;8798;51.938;4.348;2023-04-19T04:02:13;102675.38;;;11.38;65.60
17362;BME280;8798;51.938;4.348;2023-04-19T04:04:41;102664.81;;;11.35;65.72
17362;BME280;8798;51.938;4.348;2023-04-19T04:07:09;102663.00;;;11.35;66.02
17362;BME280;8798;51.938;4.348;2023-04-19T04:09:37;102683.31;;;11.39;65.72
17362;BME280;8798;51.938;4.348;2023-04-19T04:12:05;102692.88;;;11.44;65.73
17362;BME280;8798;51.938;4.348;2023-04-19T04:14:33;102693.88;;;11.43;65.80
17362;BME280;8798;51.938;4.348;2023-04-19T04:17:02;102698.28;;;11.44;66.27
17362;BME280;8798;51.938;4.348;2023-04-19T04:19:29;102690.28;;;11.42;65.76
17362;BME280;8798;51.938;4.348;2023-04-19T04:21:57;102690.28;;;11.42;65.85
17362;BME280;8798;51.938;4.348;2023-04-19T04:24:25;102701.81;;;11.44;66.28
17362;BME280;8798;51.938;4.348;2023-04-19T04:26:53;102724.00;;;11.48;66.30
17362;BME280;8798;51.938;4.348;2023-04-19T04:29:23;102720.31;;;11.49;66.17
17362;BME280;8798;51.938;4.348;2023-04-19T04:31:51;102729.25;;;11.49;65.87
17362;BME280;8798;51.938;4.348;2023-04-19T04:34:20;102724.84;;;11.48;65.76
17362;BME280;8798;51.938;4.348;2023-04-19T04:36:48;102735.38;;;11.51;66.62
17362;BME280;8798;51.938;4.348;2023-04-19T04:39:16;102732.59;;;11.53;66.28
17362;BME280;8798;51.938;4.348;2023-04-19T04:41:44;102732.69;;;11.51;66.40
17362;BME280;8798;51.938;4.348;2023-04-19T04:44:12;102724.72;;;11.50;66.03
17362;BME280;8798;51.938;4.348;2023-04-19T04:46:40;102727.41;;;11.50;66.56
17362;BME280;8798;51.938;4.348;2023-04-19T04:49:08;102720.31;;;11.49;66.26
17362;BME280;8798;51.938;4.348;2023-04-19T04:51:37;102725.59;;;11.50;66.38
17362;BME280;8798;51.938;4.348;2023-04-19T04:54:05;102731.75;;;11.52;66.66
17362;BME280;8798;51.938;4.348;2023-04-19T04:56:33;102745.91;;;11.54;66.32
17362;BME280;8798;51.938;4.348;2023-04-19T04:59:02;102741.44;;;11.55;66.63
17362;BME280;8798;51.938;4.348;2023-04-19T05:01:30;102758.09;;;11.60;66.44
17362;BME280;8798;51.938;4.348;2023-04-19T05:03:58;102770.47;;;11.62;66.48
17362;BME280;8798;51.938;4.348;2023-04-19T05:06:26;102789.09;;;11.66;66.17
17362;BME280;8798;51.938;4.348;2023-04-19T05:08:55;102798.78;;;11.68;66.28
17362;BME280;8798;51.938;4.348;2023-04-19T05:11:23;102803.94;;;11.71;66.42
17362;BME280;8798;51.938;4.348;2023-04-19T05:13:51;102810.16;;;11.72;66.08
17362;BME280;8798;51.938;4.348;2023-04-19T05:16:19;102809.31;;;11.71;66.83
17362;BME280;8798;51.938;4.348;2023-04-19T05:18:47;102804.91;;;11.70;66.14
17362;BME280;8798;51.938;4.348;2023-04-19T05:21:15;102789.84;;;11.68;66.55
17362;BME280;8798;51.938;4.348;2023-04-19T05:23:42;102789.00;;;11.67;66.48
17362;BME280;8798;51.938;4.348;2023-04-19T05:26:12;102790.69;;;11.68;66.24
17362;BME280;8798;51.938;4.348;2023-04-19T05:28:42;102795.09;;;11.69;66.20
17362;BME280;8798;51.938;4.348;2023-04-19T05:31:10;102798.69;;;11.70;66.21
17362;BME280;8798;51.938;4.348;2023-04-19T05:33:38;102788.00;;;11.68;66.63
17362;BME280;8798;51.938;4.348;2023-04-19T05:36:07;102771.19;;;11.65;66.38
17362;BME280;8798;51.938;4.348;2023-04-19T05:38:35;102755.41;;;11.60;66.60
17362;BME280;8798;51.938;4.348;2023-04-19T05:41:03;102743.13;;;11.56;66.46
17362;BME280;8798;51.938;4.348;2023-04-19T05:43:32;102718.28;;;11.52;66.51
17362;BME280;8798;51.938;4.348;2023-04-19T05:46:00;102707.72;;;11.49;66.77
17362;BME280;8798;51.938;4.348;2023-04-19T05:48:28;102690.19;;;11.44;66.90
17362;BME280;8798;51.938;4.348;2023-04-19T05:50:56;102672.53;;;11.39;66.37
17362;BME280;8798;51.938;4.348;2023-04-19T05:53:25;102664.59;;;11.38;66.92
17362;BME280;8798;51.938;4.348;2023-04-19T05:55:53;102657.47;;;11.37;66.76
17362;BME280;8798;51.938;4.348;2023-04-19T05:58:20;102662.00;;;11.36;66.85
17362;BME280;8798;51.938;4.348;2023-04-19T06:00:50;102667.38;;;11.36;66.55
17362;BME280;8798;51.938;4.348;2023-04-19T06:03:18;102667.38;;;11.36;67.00
17362;BME280;8798;51.938;4.348;2023-04-19T06:05:46;102659.41;;;11.35;66.23
17362;BME280;8798;51.938;4.348;2023-04-19T06:08:14;102668.38;;;11.35;66.81
17362;BME280;8798;51.938;4.348;2023-04-19T06:10:43;102658.56;;;11.34;66.95
17362;BME280;8798;51.938;4.348;2023-04-19T06:13:22;102661.25;;;11.34;66.52
17362;BME280;8798;51.938;4.348;2023-04-19T06:15:51;102651.47;;;11.33;66.14
17362;BME280;8798;51.938;4.348;2023-04-19T06:18:19;102661.38;;;11.33;66.79
17362;BME280;8798;51.938;4.348;2023-04-19T06:20:48;102669.31;;;11.34;66.44
17362;BME280;8798;51.938;4.348;2023-04-19T06:23:17;102672.78;;;11.36;66.14
17362;BME280;8798;51.938;4.348;2023-04-19T06:25:45;102672.78;;;11.36;66.36
17362;BME280;8798;51.938;4.348;2023-04-19T06:28:14;102678.25;;;11.35;66.44
17362;BME280;8798;51.938;4.348;2023-04-19T06:30:42;102677.19;;;11.37;66.50
17362;BME280;8798;51.938;4.348;2023-04-19T06:33:11;102703.88;;;11.40;66.76
17362;BME280;8798;51.938;4.348;2023-04-19T06:35:39;102704.63;;;11.43;66.22
17362;BME280;8798;51.938;4.348;2023-04-19T06:38:07;102717.97;;;11.44;66.31
17362;BME280;8798;51.938;4.348;2023-04-19T06:40:35;102723.25;;;11.46;66.40
17362;BME280;8798;51.938;4.348;2023-04-19T06:43:03;102725.81;;;11.47;66.47
17362;BME280;8798;51.938;4.348;2023-04-19T06:45:31;102735.63;;;11.48;65.93
17362;BME280;8798;51.938;4.348;2023-04-19T06:47:59;102741.75;;;11.50;66.23
17362;BME280;8798;51.938;4.348;2023-04-19T06:50:29;102754.97;;;11.53;66.32
17362;BME280;8798;51.938;4.348;2023-04-19T06:52:57;102756.69;;;11.54;66.31
17362;BME280;8798;51.938;4.348;2023-04-19T06:55:25;102760.25;;;11.55;65.85
17362;BME280;8798;51.938;4.348;2023-04-19T06:57:52;102761.88;;;11.57;65.86
17362;BME280;8798;51.938;4.348;2023-04-19T07:00:21;102784.03;;;11.61;66.36
17362;BME280;8798;51.938;4.348;2023-04-19T07:02:49;102795.44;;;11.65;65.78
17362;BME280;8798;51.938;4.348;2023-04-19T07:05:18;102808.69;;;11.68;65.57
17362;BME280;8798;51.938;4.348;2023-04-19T07:07:47;102813.09;;;11.69;65.59
17362;BME280;8798;51.938;4.348;2023-04-19T07:10:15;102813.09;;;11.69;65.64
17362;BME280;8798;51.938;4.348;2023-04-19T07:12:43;102809.31;;;11.71;65.56
17362;BME280;8798;51.938;4.348;2023-04-19T07:15:11;102820.84;;;11.73;65.44
17362;BME280;8798;51.938;4.348;2023-04-19T07:17:39;102829.78;;;11.74;65.18
17362;BME280;8798;51.938;4.348;2023-04-19T07:20:07;102840.31;;;11.77;65.72
17362;BME280;8798;51.938;4.348;2023-04-19T07:22:35;102852.59;;;11.81;65.49
17362;BME280;8798;51.938;4.348;2023-04-19T07:25:05;102855.06;;;11.84;65.94
17362;BME280;8798;51.938;4.348;2023-04-19T07:27:33;102864.88;;;11.85;65.61
17362;BME280;8798;51.938;4.348;2023-04-19T07:30:01;102870.16;;;11.87;65.02
17362;BME280;8798;51.938;4.348;2023-04-19T07:32:29;102882.56;;;11.89;65.46
17362;BME280;8798;51.938;4.348;2023-04-19T07:34:57;102890.44;;;11.92;64.94
17362;BME280;8798;51.938;4.348;2023-04-19T07:37:26;102903.69;;;11.95;65.17
17362;BME280;8798;51.938;4.348;2023-04-19T07:39:54;102916.81;;;12.00;65.42
17362;BME280;8798;51.938;4.348;2023-04-19T07:42:23;102933.50;;;12.05;65.21
17362;BME280;8798;51.938;4.348;2023-04-19T07:44:51;102937.81;;;12.08;65.22
17362;BME280;8798;51.938;4.348;2023-04-19T07:47:19;102952.91;;;12.10;64.76
17362;BME280;8798;51.938;4.348;2023-04-19T07:49:50;102963.34;;;12.15;64.46
17362;BME280;8798;51.938;4.348;2023-04-19T07:52:18;102973.91;;;12.18;64.69
17362;BME280;8798;51.938;4.348;2023-04-19T07:54:46;102985.22;;;12.23;64.99
17362;BME280;8798;51.938;4.348;2023-04-19T07:57:14;103003.84;;;12.26;64.78
17362;BME280;8798;51.938;4.348;2023-04-19T07:59:43;103016.06;;;12.32;64.17
17362;BME280;8798;51.938;4.348;2023-04-19T08:02:11;103028.22;;;12.37;64.42
17362;BME280;8798;51.938;4.348;2023-04-19T08:04:39;103053.00;;;12.42;64.25
17362;BME280;8798;51.938;4.348;2023-04-19T08:07:08;103075.00;;;12.49;64.21
17362;BME280;8798;51.938;4.348;2023-04-19T08:09:36;103078.34;;;12.53;63.83
17362;BME280;8798;51.938;4.348;2023-04-19T08:12:04;103098.72;;;12.57;64.02
17362;BME280;8798;51.938;4.348;2023-04-19T08:14:32;103104.66;;;12.62;63.93
17362;BME280;8798;51.938;4.348;2023-04-19T08:17:18;103129.34;;;12.68;64.02
17362;BME280;8798;51.938;4.348;2023-04-19T08:19:54;103142.50;;;12.73;63.73
17362;BME280;8798;51.938;4.348;2023-04-19T08:22:22;103125.34;;;12.74;63.65
17362;BME280;8798;51.938;4.348;2023-04-19T08:24:50;103140.47;;;12.77;63.63
17362;BME280;8798;51.938;4.348;2023-04-19T08:27:19;103150.94;;;12.81;62.97
17362;BME280;8798;51.938;4.348;2023-04-19T08:29:47;103169.34;;;12.87;62.86
17362;BME280;8798;51.938;4.348;2023-04-19T08:32:15;103181.66;;;12.91;63.46
17362;BME280;8798;51.938;4.348;2023-04-19T08:34:44;103196.53;;;12.97;63.01
17362;BME280;8798;51.938;4.348;2023-04-19T08:37:13;103218.44;;;13.05;62.38
17362;BME280;8798;51.938;4.348;2023-04-19T08:39:41;103245.84;;;13.12;62.50
17362;BME280;8798;51.938;4.348;2023-04-19T08:42:09;103267.75;;;13.20;62.61
17362;BME280;8798;51.938;4.348;2023-04-19T08:45:00;103292.28;;;13.30;62.27
17362;BME280;8798;51.938;4.348;2023-04-19T08:47:35;103317.03;;;13.37;62.32
17362;BME280;8798;51.938;4.348;2023-04-19T08:50:24;103332.81;;;13.43;62.08
17362;BME280;8798;51.938;4.348;2023-04-19T08:53:01;103331.59;;;13.47;62.01
17362;BME280;8798;51.938;4.348;2023-04-19T08:55:32;103341.31;;;13.49;61.83
17362;BME280;8798;51.938;4.348;2023-04-19T08:58:02;103335.81;;;13.51;61.98
17362;BME280;8798;51.938;4.348;2023-04-19T09:00:38;103324.78;;;13.54;61.41
17362;BME280;8798;51.938;4.348;2023-04-19T09:03:07;103337.13;;;13.58;61.46
17362;BME280;8798;51.938;4.348;2023-04-19T09:05:36;103353.84;;;13.63;61.03
17362;BME280;8798;51.938;4.348;2023-04-19T09:08:20;103371.34;;;13.70;61.25
17362;BME280;8798;51.938;4.348;2023-04-19T09:10:52;103371.97;;;13.74;61.19
17362;BME280;8798;51.938;4.348;2023-04-19T09:13:21;103365.63;;;13.75;61.28
17362;BME280;8798;51.938;4.348;2023-04-19T09:15:49;103375.34;;;13.77;60.94
17362;BME280;8798;51.938;4.348;2023-04-19T09:18:19;103364.31;;;13.81;60.41
17362;BME280;8798;51.938;4.348;2023-04-19T09:20:48;103382.03;;;13.85;60.73
17362;BME280;8798;51.938;4.348;2023-04-19T09:23:17;103392.41;;;13.91;60.44
17362;BME280;8798;51.938;4.348;2023-04-19T09:25:51;103409.91;;;13.98;59.98
17362;BME280;8798;51.938;4.348;2023-04-19T09:28:54;103419.41;;;14.04;60.38
17362;BME280;8798;51.938;4.348;2023-04-19T09:31:22;103428.91;;;14.09;59.84
17362;BME280;8798;51.938;4.348;2023-04-19T09:33:56;103451.81;;;14.16;59.64
17362;BME280;8798;51.938;4.348;2023-04-19T09:36:30;103459.50;;;14.23;59.66
17362;BME280;8798;51.938;4.348;2023-04-19T09:38:58;103459.25;;;14.26;59.70
17362;BME280;8798;51.938;4.348;2023-04-19T09:41:26;103456.31;;;14.29;58.97
17362;BME280;8798;51.938;4.348;2023-04-19T09:44:08;103449.97;;;14.30;59.21
17362;BME280;8798;51.938;4.348;2023-04-19T09:46:56;103450.59;;;14.33;58.74
17362;BME280;8798;51.938;4.348;2023-04-19T09:49:24;103446.03;;;14.34;58.68
17362;BME280;8798;51.938;4.348;2023-04-19T09:52:14;103422.59;;;14.34;58.33
17362;BME280;8798;51.938;4.348;2023-04-19T09:54:42;103427.63;;;14.39;58.20
17362;BME280;8798;51.938;4.348;2023-04-19T09:57:11;103448.84;;;14.45;58.14
17362;BME280;8798;51.938;4.348;2023-04-19T09:59:39;103465.50;;;14.52;57.98
17362;BME280;8798;51.938;4.348;2023-04-19T10:02:09;103459.09;;;14.53;58.04
17362;BME280;8798;51.938;4.348;2023-04-19T10:04:39;103451.75;;;14.55;57.75
17362;BME280;8798;51.938;4.348;2023-04-19T10:07:17;103449.69;;;14.58;57.70
17362;BME280;8798;51.938;4.348;2023-04-19T10:09:57;103439.84;;;14.57;57.29
17362;BME280;8798;51.938;4.348;2023-04-19T10:12:30;103418.22;;;14.57;56.69
17362;BME280;8798;51.938;4.348;2023-04-19T10:15:02;103410.19;;;14.56;56.47
17362;BME280;8798;51.938;4.348;2023-04-19T10:17:30;103392.25;;;14.55;56.51
17362;BME280;8798;51.938;4.348;2023-04-19T10:20:03;103396.47;;;14.59;56.44
17362;BME280;8798;51.938;4.348;2023-04-19T10:22:35;103398.06;;;14.61;56.11
17362;BME280;8798;51.938;4.348;2023-04-19T10:25:08;103380.00;;;14.62;55.91
17362;BME280;8798;51.938;4.348;2023-04-19T10:27:36;103365.63;;;14.61;55.65
17362;BME280;8798;51.938;4.348;2023-04-19T10:30:05;103373.34;;;14.66;55.28
17362;BME280;8798;51.938;4.348;2023-04-19T10:32:39;103378.41;;;14.71;55.12
17362;BME280;8798;51.938;4.348;2023-04-19T10:35:08;103391.50;;;14.77;54.87
17362;BME280;8798;51.938;4.348;2023-04-19T10:37:40;103395.81;;;14.79;54.69
17362;BME280;8798;51.938;4.348;2023-04-19T10:40:56;103387.56;;;14.81;54.38
17362;BME280;8798;51.938;4.348;2023-04-19T10:43:27;103395.47;;;14.84;54.25
17362;BME280;8798;51.938;4.348;2023-04-19T10:45:58;103418.16;;;14.94;54.07
17362;BME280;8798;51.938;4.348;2023-04-19T10:48:35;103414.34;;;14.97;53.84
17362;BME280;8798;51.938;4.348;2023-04-19T10:51:10;103400.06;;;14.95;53.58
17362;BME280;8798;51.938;4.348;2023-04-19T10:53:46;103392.69;;;14.97;53.21
17362;BME280;8798;51.938;4.348;2023-04-19T10:56:15;103386.28;;;14.98;53.04
17362;BME280;8798;51.938;4.348;2023-04-19T10:59:11;103399.47;;;15.02;52.94
17362;BME280;8798;51.938;4.348;2023-04-19T11:01:49;103370.53;;;15.03;52.70
17362;BME280;8798;51.938;4.348;2023-04-19T11:04:18;103382.00;;;15.07;52.34
17362;BME280;8798;51.938;4.348;2023-04-19T11:06:58;103372.91;;;15.08;52.55
17362;BME280;8798;51.938;4.348;2023-04-19T11:09:30;103363.06;;;15.07;52.12
17362;BME280;8798;51.938;4.348;2023-04-19T11:12:02;103357.50;;;15.08;51.83
17362;BME280;8798;51.938;4.348;2023-04-19T11:14:33;103385.72;;;15.17;51.58
17362;BME280;8798;51.938;4.348;2023-04-19T11:17:03;103414.69;;;15.27;51.50
17362;BME280;8798;51.938;4.348;2023-04-19T11:19:31;103432.06;;;15.36;51.32
17362;BME280;8798;51.938;4.348;2023-04-19T11:21:59;103454.00;;;15.44;51.14
17362;BME280;8798;51.938;4.348;2023-04-19T11:24:27;103464.59;;;15.47;50.94
17362;BME280;8798;51.938;4.348;2023-04-19T11:26:56;103459.69;;;15.53;50.80
17362;BME280;8798;51.938;4.348;2023-04-19T11:29:24;103481.75;;;15.59;50.61
17362;BME280;8798;51.938;4.348;2023-04-19T11:31:52;103480.66;;;15.62;50.29
17362;BME280;8798;51.938;4.348;2023-04-19T11:34:22;103455.50;;;15.60;50.23
17362;BME280;8798;51.938;4.348;2023-04-19T11:36:50;103427.81;;;15.56;50.23
17362;BME280;8798;51.938;4.348;2023-04-19T11:39:18;103431.25;;;15.58;50.02
17362;BME280;8798;51.938;4.348;2023-04-19T11:41:47;103414.13;;;15.58;49.63
17362;BME280;8798;51.938;4.348;2023-04-19T11:44:17;103398.00;;;15.56;49.35
17362;BME280;8798;51.938;4.348;2023-04-19T11:46:59;103395.03;;;15.59;49.64
17362;BME280;8798;51.938;4.348;2023-04-19T11:49:29;103393.19;;;15.60;49.42
17362;BME280;8798;51.938;4.348;2023-04-19T11:51:58;103397.28;;;15.65;49.41
17362;BME280;8798;51.938;4.348;2023-04-19T11:54:30;103404.31;;;15.68;49.43
17362;BME280;8798;51.938;4.348;2023-04-19T11:57:02;103403.09;;;15.72;49.21
17362;BME280;8798;51.938;4.348;2023-04-19T11:59:33;103401.13;;;15.74;48.92
17362;BME280;8798;51.938;4.348;2023-04-19T12:02:08;103374.38;;;15.69;48.73
17362;BME280;8798;51.938;4.348;2023-04-19T12:04:37;103357.22;;;15.69;48.84
17362;BME280;8798;51.938;4.348;2023-04-19T12:07:06;103375.88;;;15.74;48.51
17362;BME280;8798;51.938;4.348;2023-04-19T12:09:34;103391.53;;;15.81;48.58
17362;BME280;8798;51.938;4.348;2023-04-19T12:12:04;103397.44;;;15.86;48.30
17362;BME280;8798;51.938;4.348;2023-04-19T12:14:33;103398.06;;;15.90;48.44
17362;BME280;8798;51.938;4.348;2023-04-19T12:17:11;103393.34;;;15.92;48.01
17362;BME280;8798;51.938;4.348;2023-04-19T12:19:43;103399.41;;;15.96;47.85
17362;BME280;8798;51.938;4.348;2023-04-19T12:22:13;103401.75;;;16.00;47.82
17362;BME280;8798;51.938;4.348;2023-04-19T12:24:42;103419.25;;;16.07;47.82
17362;BME280;8798;51.938;4.348;2023-04-19T12:27:10;103448.19;;;16.18;47.58
17362;BME280;8798;51.938;4.348;2023-04-19T12:29:39;103459.53;;;16.23;47.58
17362;BME280;8798;51.938;4.348;2023-04-19T12:32:09;103476.06;;;16.31;47.49
17362;BME280;8798;51.938;4.348;2023-04-19T12:34:37;103501.44;;;16.42;47.30
17362;BME280;8798;51.938;4.348;2023-04-19T12:37:06;103534.13;;;16.51;47.23
17362;BME280;8798;51.938;4.348;2023-04-19T12:39:35;103516.97;;;16.51;46.84
17362;BME280;8798;51.938;4.348;2023-04-19T12:42:03;103518.59;;;16.53;46.93
17362;BME280;8798;51.938;4.348;2023-04-19T12:44:31;103523.63;;;16.58;46.53
17362;BME280;8798;51.938;4.348;2023-04-19T12:47:01;103541.91;;;16.67;46.74
17362;BME280;8798;51.938;4.348;2023-04-19T12:49:28;103519.19;;;16.68;46.28
17362;BME280;8798;51.938;4.348;2023-04-19T12:51:56;103526.09;;;16.72;46.40
17362;BME280;8798;51.938;4.348;2023-04-19T12:54:24;103538.44;;;16.76;46.19
17362;BME280;8798;51.938;4.348;2023-04-19T12:56:52;103537.97;;;16.83;45.84
17362;BME280;8798;51.938;4.348;2023-04-19T12:59:20;103578.53;;;16.95;45.75
17362;BME280;8798;51.938;4.348;2023-04-19T13:01:49;103600.38;;;17.05;45.44
17362;BME280;8798;51.938;4.348;2023-04-19T13:04:18;103636.53;;;17.17;45.20
17362;BME280;8798;51.938;4.348;2023-04-19T13:06:46;103673.41;;;17.31;45.29
17362;BME280;8798;51.938;4.348;2023-04-19T13:09:14;103697.00;;;17.41;45.22
17362;BME280;8798;51.938;4.348;2023-04-19T13:11:42;103714.56;;;17.49;45.12
17362;BME280;8798;51.938;4.348;2023-04-19T13:14:10;103720.22;;;17.57;44.75